Erie, MI (48133)

9:14 PM EST on December 07, 2016 (GMT -0500)
Maplewood | | Change Station

Elev 597 ft 41.80 °N, 83.50 °W | Updated 14 seconds ago

Scattered Clouds
Scattered Clouds
30.7 °F
Feels Like 26 °F
N
5.0
Wind Variable Wind from West

Today
High -- | Low -- °F
--% Chance of Precip.
Yesterday
High -- | Low -- °F
Precip. -- in
Pressure 30.05 in
Visibility 10.0 miles
Clouds Scattered Clouds 11000 ft
Windchill 26 °F
Dew Point 25 °F
Humidity 81%
Rainfall 0.00 in
Snow Depth Not available.
7:48 AM 5:03 PM
First Quarter, 58% visible
METAR KDUH 080154Z AUTO 26006KT 10SM SCT110 00/M04 A3005 RMK AO2 T00011036
Pressure 30.05 in
Visibility 10.0 miles
Clouds Scattered Clouds 11000 ft
Windchill 26 °F
Dew Point 25 °F
Humidity 81%
Rainfall 0.00 in
Snow Depth Not available.
7:48 AM 5:03 PM
First Quarter, 58% visible
METAR KDUH 080154Z AUTO 26006KT 10SM SCT110 00/M04 A3005 RMK AO2 T00011036

10-Day Weather Forecast

Almanac

Astronomy

Dec. 07, 2016 Rise Set
Actual Time
Civil Twilight
Nautical Twilight
Astronomical Twilight
Moon
Length of Visible Light
Length of Day
Tomorrow will be .
, % of the Moon is Illuminated

Today's Extremes

State Highs State Lows

Community

WunderPhotos

Upload Photos

1,956,259 photos uploaded!

WunderBlog® & News

Nearby

Air Quality

  Air Quality AQ Index Pollutant
Not available.

Snow Depth

Station Depth Elevation

Earthquake Activity

City Distance Mag. Time & Date
Minimum magnitude displayed is 2.5.

Coastal Water Temperatures

Place Temperature

Stations

Nearby Weather Stations

Station Location Temp. Windchill Dew Point Humidity Wind Precip. Elev Updated Type
                   

Watches & Warnings

There are currently no watches in effect.